Henderson, Maryland
Current Conditions -  °F | °C
As of 4:58 PM on Monday 24 Nov 2014 (Local Time) from KDOV Reporting Station
Clear Clear  
Wind Chill: 68°   Ceiling: Unl
Heat Index: 68°   Visibility: 10mi
Dew Point: 57°   Wind: 18mph
Humidity: 68%   Direction: 190°S
Pressure: 29.67"   Gusts: 26mph
Location:  39.07°N, 75.77°W
Report Text: KDOV 242158Z AUTO 19016G23KT 10SM CLR 20/14 A2967 RMK AO2 PK WND 19027/09 SLP050 T02010141
Loading
Personal Weather Stations






























Interactive Weather Map New forecast layout! Learn more

10-Day Weather Forecast

Advertisements
Track Severe Weather on mobile